Historique des mesures à Cassis (13260), France
Quotidien Résumé Fevrier 25, 2018 Unités:  US    Métrique   Métrique/US
« Précédent (Jour)
Suivant (Jour) »
Quotidien Hebdomadaire Mensuel Annuel Période au choix
  Maximum: Minimum: Moyenne:
Température: 32 °F 41.9 °F 47.7 °F
Point de rosée: 32 °F 28.9 °F 38.3 °F
Humidité: Humidity % 53 % 67 %
Vitesse du vent: WindSpeedKMH mph 0.0 mph 3.6 mph
Rafales: WindSpeedGustKMH mph - -
Vent:- - SW
Pression: 0 in 29.6 in -
Précipitations: 12.7 in    
Historical Graphs
 
 
Mesures pour : Fevrier 25, 2018
Heure Temperature Point de rosée Pression Vent Vitesse du vent Rafales Humidité Pluie (par heure) Conditions
32 °F 32 °F 0 in Calm     Humidity % 0 in SoftwareType W/m2
00:12 46.6 °F 38.8 °F 29.6 in NNE 6.4 mph 6.4 mph 74 % 0 in open2300-1.11 W/m2
01:12 46.9 °F 38.7 °F 29.6 in North 1.1 mph 5.0 mph 73 % 0 in open2300-1.11 W/m2
02:12 47.1 °F 38.5 °F 29.6 in NNW 3.2 mph 4.3 mph 72 % 0 in open2300-1.11 W/m2
03:12 48 °F 39 °F 29.6 in NNW 5.0 mph 5.0 mph 71 % 0 in open2300-1.11 W/m2
04:12 48.6 °F 39.6 °F 29.6 in Calm     71 % 0 in open2300-1.11 W/m2
05:12 49.8 °F 41.2 °F 29.6 in Calm     72 % 0 in open2300-1.11 W/m2
06:12 48.4 °F 41.7 °F 29.6 in Calm     78 % 0 in open2300-1.11 W/m2
07:12 48.7 °F 41.7 °F 29.6 in NNW 2.6 mph 4.0 mph 77 % 0 in open2300-1.11 W/m2
08:12 49.6 °F 42.3 °F 29.6 in Calm     76 % 0 in open2300-1.11 W/m2
09:12 49.8 °F 43.2 °F 29.6 in Calm     78 % 0 in open2300-1.11 W/m2
10:12 49.3 °F 43.7 °F 29.7 in ESE 2.9 mph 2.9 mph 81 % 12.7 in open2300-1.11 W/m2
11:12 51.1 °F 45.5 °F 29.6 in Calm   2.1 mph 81 % 0 in open2300-1.11 W/m2
12:12 52.3 °F 45.3 °F 29.6 in NW 2.6 mph 3.2 mph 77 % 0 in open2300-1.11 W/m2
13:12 52 °F 43 °F 29.6 in WNW 15.4 mph 15.4 mph 71 % 0 in open2300-1.11 W/m2
14:12 52 °F 40.5 °F 29.6 in WNW 15.1 mph 28.2 mph 65 % 0 in open2300-1.11 W/m2
15:12 52.2 °F 37.8 °F 29.6 in West 10.8 mph 22.7 mph 58 % 0 in open2300-1.11 W/m2
16:12 51.6 °F 35.1 °F 29.6 in West 6.1 mph 6.1 mph 53 % 0 in open2300-1.11 W/m2
17:12 49.6 °F 34.2 °F 29.6 in NW 4.0 mph 15.1 mph 55 % 0 in open2300-1.11 W/m2
18:12 45.3 °F 30.9 °F 29.6 in West 5.0 mph 5.0 mph 57 % 0 in open2300-1.11 W/m2
19:12 43.7 °F 30.4 °F 29.6 in Calm     59 % 0 in open2300-1.11 W/m2
20:12 41.9 °F 28.9 °F 29.6 in NNE 5.8 mph 10.1 mph 60 % 0 in open2300-1.11 W/m2
21:12 43.9 °F 31.6 °F 29.6 in WNW 4.7 mph 4.7 mph 62 % 0 in open2300-1.11 W/m2
22:12 45.1 °F 36.3 °F 29.6 in Calm   6.1 mph 71 % 0 in open2300-1.11 W/m2
23:12 45.1 °F 37.8 °F 29.6 in Calm     75 % 0 in open2300-1.11 W/m2
Observations météo à CASSIS
WU-History script by Weather Underground - 1 mb